sensor_id;sensor_type;location;lat;lon;timestamp;P1;durP1;ratioP1;P2;durP2;ratioP2
45887;SDS011;31595;51.418;7.572;2023-06-14T00:01:13;7.05;;;6.35;;
45887;SDS011;31595;51.418;7.572;2023-06-14T00:03:40;7.63;;;6.55;;
45887;SDS011;31595;51.418;7.572;2023-06-14T00:06:07;6.90;;;6.30;;
45887;SDS011;31595;51.418;7.572;2023-06-14T00:08:34;8.13;;;6.60;;
45887;SDS011;31595;51.418;7.572;2023-06-14T00:11:02;8.77;;;7.05;;
45887;SDS011;31595;51.418;7.572;2023-06-14T00:13:29;8.40;;;7.15;;
45887;SDS011;31595;51.418;7.572;2023-06-14T00:15:56;8.15;;;7.13;;
45887;SDS011;31595;51.418;7.572;2023-06-14T00:18:23;8.35;;;6.68;;
45887;SDS011;31595;51.418;7.572;2023-06-14T00:20:50;9.85;;;7.32;;
45887;SDS011;31595;51.418;7.572;2023-06-14T00:23:17;8.13;;;7.28;;
45887;SDS011;31595;51.418;7.572;2023-06-14T00:25:44;7.93;;;7.05;;
45887;SDS011;31595;51.418;7.572;2023-06-14T00:28:13;7.82;;;7.03;;
45887;SDS011;31595;51.418;7.572;2023-06-14T00:30:40;9.57;;;8.02;;
45887;SDS011;31595;51.418;7.572;2023-06-14T00:33:06;8.77;;;7.57;;
45887;SDS011;31595;51.418;7.572;2023-06-14T00:35:33;9.40;;;7.22;;
45887;SDS011;31595;51.418;7.572;2023-06-14T00:38:00;9.50;;;6.38;;
45887;SDS011;31595;51.418;7.572;2023-06-14T00:40:27;7.80;;;6.35;;
45887;SDS011;31595;51.418;7.572;2023-06-14T00:42:54;7.80;;;6.85;;
45887;SDS011;31595;51.418;7.572;2023-06-14T00:45:22;8.57;;;7.10;;
45887;SDS011;31595;51.418;7.572;2023-06-14T00:47:49;9.45;;;7.60;;
45887;SDS011;31595;51.418;7.572;2023-06-14T00:50:17;8.48;;;7.68;;
45887;SDS011;31595;51.418;7.572;2023-06-14T00:52:45;7.38;;;6.55;;
45887;SDS011;31595;51.418;7.572;2023-06-14T00:55:12;7.82;;;7.03;;
45887;SDS011;31595;51.418;7.572;2023-06-14T00:57:39;8.30;;;7.50;;
45887;SDS011;31595;51.418;7.572;2023-06-14T01:00:06;8.50;;;7.38;;
45887;SDS011;31595;51.418;7.572;2023-06-14T01:02:36;13.20;;;8.13;;
45887;SDS011;31595;51.418;7.572;2023-06-14T01:05:03;8.93;;;7.30;;
45887;SDS011;31595;51.418;7.572;2023-06-14T01:07:33;11.20;;;6.65;;
45887;SDS011;31595;51.418;7.572;2023-06-14T01:10:09;10.55;;;7.68;;
45887;SDS011;31595;51.418;7.572;2023-06-14T01:12:41;10.20;;;7.60;;
45887;SDS011;31595;51.418;7.572;2023-06-14T01:15:11;7.90;;;7.10;;
45887;SDS011;31595;51.418;7.572;2023-06-14T01:17:40;9.60;;;7.93;;
45887;SDS011;31595;51.418;7.572;2023-06-14T01:20:10;10.30;;;7.93;;
45887;SDS011;31595;51.418;7.572;2023-06-14T01:22:47;8.52;;;7.65;;
45887;SDS011;31595;51.418;7.572;2023-06-14T01:25:14;8.82;;;7.00;;
45887;SDS011;31595;51.418;7.572;2023-06-14T01:27:41;8.77;;;7.03;;
45887;SDS011;31595;51.418;7.572;2023-06-14T01:30:09;8.80;;;7.18;;
45887;SDS011;31595;51.418;7.572;2023-06-14T01:32:36;7.50;;;6.80;;
45887;SDS011;31595;51.418;7.572;2023-06-14T01:35:04;7.50;;;6.70;;
45887;SDS011;31595;51.418;7.572;2023-06-14T01:37:31;9.25;;;7.63;;
45887;SDS011;31595;51.418;7.572;2023-06-14T01:39:59;7.80;;;7.00;;
45887;SDS011;31595;51.418;7.572;2023-06-14T01:42:26;10.45;;;7.72;;
45887;SDS011;31595;51.418;7.572;2023-06-14T01:44:53;8.07;;;6.88;;
45887;SDS011;31595;51.418;7.572;2023-06-14T01:47:21;8.32;;;6.97;;
45887;SDS011;31595;51.418;7.572;2023-06-14T01:49:48;7.53;;;6.65;;
45887;SDS011;31595;51.418;7.572;2023-06-14T01:52:15;8.52;;;7.35;;
45887;SDS011;31595;51.418;7.572;2023-06-14T01:54:42;11.93;;;7.78;;
45887;SDS011;31595;51.418;7.572;2023-06-14T01:57:10;8.65;;;7.85;;
45887;SDS011;31595;51.418;7.572;2023-06-14T01:59:37;7.00;;;6.28;;
45887;SDS011;31595;51.418;7.572;2023-06-14T02:02:04;7.50;;;6.68;;
45887;SDS011;31595;51.418;7.572;2023-06-14T02:04:31;9.50;;;7.20;;
45887;SDS011;31595;51.418;7.572;2023-06-14T02:06:57;9.02;;;6.75;;
45887;SDS011;31595;51.418;7.572;2023-06-14T02:09:24;9.82;;;7.50;;
45887;SDS011;31595;51.418;7.572;2023-06-14T02:11:51;7.35;;;6.53;;
45887;SDS011;31595;51.418;7.572;2023-06-14T02:14:20;6.93;;;6.28;;
45887;SDS011;31595;51.418;7.572;2023-06-14T02:16:46;8.18;;;6.38;;
45887;SDS011;31595;51.418;7.572;2023-06-14T02:19:15;7.75;;;6.95;;
45887;SDS011;31595;51.418;7.572;2023-06-14T02:21:42;11.38;;;7.00;;
45887;SDS011;31595;51.418;7.572;2023-06-14T02:24:09;10.15;;;6.75;;
45887;SDS011;31595;51.418;7.572;2023-06-14T02:26:36;8.23;;;6.13;;
45887;SDS011;31595;51.418;7.572;2023-06-14T02:29:03;7.30;;;6.60;;
45887;SDS011;31595;51.418;7.572;2023-06-14T02:31:32;6.90;;;6.15;;
45887;SDS011;31595;51.418;7.572;2023-06-14T02:33:58;8.55;;;7.05;;
45887;SDS011;31595;51.418;7.572;2023-06-14T02:36:25;7.65;;;6.53;;
45887;SDS011;31595;51.418;7.572;2023-06-14T02:38:52;7.47;;;6.53;;
45887;SDS011;31595;51.418;7.572;2023-06-14T02:41:19;7.63;;;5.97;;
45887;SDS011;31595;51.418;7.572;2023-06-14T02:43:46;8.73;;;7.00;;
45887;SDS011;31595;51.418;7.572;2023-06-14T02:46:13;7.78;;;6.90;;
45887;SDS011;31595;51.418;7.572;2023-06-14T02:48:41;10.57;;;6.80;;
45887;SDS011;31595;51.418;7.572;2023-06-14T02:51:08;8.23;;;6.88;;
45887;SDS011;31595;51.418;7.572;2023-06-14T02:53:35;8.35;;;7.07;;
45887;SDS011;31595;51.418;7.572;2023-06-14T02:56:02;7.93;;;7.00;;
45887;SDS011;31595;51.418;7.572;2023-06-14T02:58:29;7.13;;;6.43;;
45887;SDS011;31595;51.418;7.572;2023-06-14T03:00:56;6.38;;;5.78;;
45887;SDS011;31595;51.418;7.572;2023-06-14T03:03:23;8.68;;;6.80;;
45887;SDS011;31595;51.418;7.572;2023-06-14T03:05:51;8.20;;;6.25;;
45887;SDS011;31595;51.418;7.572;2023-06-14T03:10:46;8.32;;;5.97;;
45887;SDS011;31595;51.418;7.572;2023-06-14T03:13:13;7.55;;;6.60;;
45887;SDS011;31595;51.418;7.572;2023-06-14T03:15:41;8.82;;;6.60;;
45887;SDS011;31595;51.418;7.572;2023-06-14T03:18:10;9.25;;;6.28;;
45887;SDS011;31595;51.418;7.572;2023-06-14T03:20:37;7.22;;;6.07;;
45887;SDS011;31595;51.418;7.572;2023-06-14T03:23:05;7.20;;;6.38;;
45887;SDS011;31595;51.418;7.572;2023-06-14T03:25:32;7.00;;;6.30;;
45887;SDS011;31595;51.418;7.572;2023-06-14T03:28:03;8.85;;;6.78;;
45887;SDS011;31595;51.418;7.572;2023-06-14T03:30:31;8.55;;;6.70;;
45887;SDS011;31595;51.418;7.572;2023-06-14T03:32:58;8.07;;;6.70;;
45887;SDS011;31595;51.418;7.572;2023-06-14T03:35:26;8.25;;;6.38;;
45887;SDS011;31595;51.418;7.572;2023-06-14T03:37:53;8.68;;;6.93;;
45887;SDS011;31595;51.418;7.572;2023-06-14T03:40:21;6.78;;;5.93;;
45887;SDS011;31595;51.418;7.572;2023-06-14T03:42:52;6.95;;;6.03;;
45887;SDS011;31595;51.418;7.572;2023-06-14T03:45:18;7.63;;;6.32;;
45887;SDS011;31595;51.418;7.572;2023-06-14T03:47:46;6.88;;;6.10;;
45887;SDS011;31595;51.418;7.572;2023-06-14T03:50:13;7.47;;;5.65;;
45887;SDS011;31595;51.418;7.572;2023-06-14T03:52:40;8.88;;;6.22;;
45887;SDS011;31595;51.418;7.572;2023-06-14T03:55:09;8.45;;;5.97;;
45887;SDS011;31595;51.418;7.572;2023-06-14T03:57:37;8.38;;;6.38;;
45887;SDS011;31595;51.418;7.572;2023-06-14T04:00:04;6.68;;;5.95;;
45887;SDS011;31595;51.418;7.572;2023-06-14T04:02:31;7.18;;;6.35;;
45887;SDS011;31595;51.418;7.572;2023-06-14T04:04:58;7.53;;;5.85;;
45887;SDS011;31595;51.418;7.572;2023-06-14T04:07:25;6.53;;;5.88;;
45887;SDS011;31595;51.418;7.572;2023-06-14T04:09:54;7.20;;;6.50;;
45887;SDS011;31595;51.418;7.572;2023-06-14T04:12:21;7.10;;;5.85;;
45887;SDS011;31595;51.418;7.572;2023-06-14T04:14:49;7.72;;;5.90;;
45887;SDS011;31595;51.418;7.572;2023-06-14T04:17:16;7.75;;;5.97;;
45887;SDS011;31595;51.418;7.572;2023-06-14T04:19:43;8.00;;;6.05;;
45887;SDS011;31595;51.418;7.572;2023-06-14T04:22:10;8.65;;;6.80;;
45887;SDS011;31595;51.418;7.572;2023-06-14T04:24:36;7.45;;;6.13;;
45887;SDS011;31595;51.418;7.572;2023-06-14T04:27:03;9.98;;;6.38;;
45887;SDS011;31595;51.418;7.572;2023-06-14T04:29:32;7.55;;;6.60;;
45887;SDS011;31595;51.418;7.572;2023-06-14T04:32:00;9.00;;;6.25;;
45887;SDS011;31595;51.418;7.572;2023-06-14T04:34:27;8.23;;;5.80;;
45887;SDS011;31595;51.418;7.572;2023-06-14T04:36:59;8.23;;;5.95;;
45887;SDS011;31595;51.418;7.572;2023-06-14T04:39:26;8.35;;;6.05;;
45887;SDS011;31595;51.418;7.572;2023-06-14T04:41:53;7.53;;;5.63;;
45887;SDS011;31595;51.418;7.572;2023-06-14T04:44:22;8.37;;;5.43;;
45887;SDS011;31595;51.418;7.572;2023-06-14T04:46:55;7.85;;;6.05;;
45887;SDS011;31595;51.418;7.572;2023-06-14T04:49:25;7.22;;;5.80;;
45887;SDS011;31595;51.418;7.572;2023-06-14T04:51:52;8.00;;;5.90;;
45887;SDS011;31595;51.418;7.572;2023-06-14T04:54:24;9.55;;;6.18;;
45887;SDS011;31595;51.418;7.572;2023-06-14T04:56:51;8.32;;;6.78;;
45887;SDS011;31595;51.418;7.572;2023-06-14T04:59:18;7.78;;;6.43;;
45887;SDS011;31595;51.418;7.572;2023-06-14T05:01:45;7.47;;;5.85;;
45887;SDS011;31595;51.418;7.572;2023-06-14T05:04:14;8.43;;;6.10;;
45887;SDS011;31595;51.418;7.572;2023-06-14T05:06:43;8.00;;;6.05;;
45887;SDS011;31595;51.418;7.572;2023-06-14T05:09:10;8.30;;;5.57;;
45887;SDS011;31595;51.418;7.572;2023-06-14T05:11:37;10.80;;;6.00;;
45887;SDS011;31595;51.418;7.572;2023-06-14T05:14:04;8.35;;;4.78;;
45887;SDS011;31595;51.418;7.572;2023-06-14T05:16:31;11.45;;;5.28;;
45887;SDS011;31595;51.418;7.572;2023-06-14T05:18:58;7.13;;;4.82;;
45887;SDS011;31595;51.418;7.572;2023-06-14T05:21:25;6.53;;;4.18;;
45887;SDS011;31595;51.418;7.572;2023-06-14T05:23:53;5.60;;;4.68;;
45887;SDS011;31595;51.418;7.572;2023-06-14T05:26:21;4.93;;;3.97;;
45887;SDS011;31595;51.418;7.572;2023-06-14T05:28:49;5.75;;;4.20;;
45887;SDS011;31595;51.418;7.572;2023-06-14T05:31:18;6.88;;;3.95;;
45887;SDS011;31595;51.418;7.572;2023-06-14T05:33:45;5.47;;;4.32;;
45887;SDS011;31595;51.418;7.572;2023-06-14T05:36:12;6.78;;;4.57;;
45887;SDS011;31595;51.418;7.572;2023-06-14T05:38:38;5.05;;;3.88;;
45887;SDS011;31595;51.418;7.572;2023-06-14T05:41:07;6.07;;;4.22;;
45887;SDS011;31595;51.418;7.572;2023-06-14T05:43:34;6.07;;;3.78;;
45887;SDS011;31595;51.418;7.572;2023-06-14T05:46:01;7.28;;;3.65;;
45887;SDS011;31595;51.418;7.572;2023-06-14T05:48:28;6.13;;;3.85;;
45887;SDS011;31595;51.418;7.572;2023-06-14T05:50:55;5.28;;;3.90;;
45887;SDS011;31595;51.418;7.572;2023-06-14T05:53:21;5.95;;;3.55;;
45887;SDS011;31595;51.418;7.572;2023-06-14T05:55:50;5.10;;;3.72;;
45887;SDS011;31595;51.418;7.572;2023-06-14T05:58:18;5.03;;;3.90;;
45887;SDS011;31595;51.418;7.572;2023-06-14T06:00:45;4.93;;;3.92;;
45887;SDS011;31595;51.418;7.572;2023-06-14T06:03:12;6.07;;;3.42;;
45887;SDS011;31595;51.418;7.572;2023-06-14T06:05:39;7.25;;;3.70;;
45887;SDS011;31595;51.418;7.572;2023-06-14T06:08:06;5.28;;;3.53;;
45887;SDS011;31595;51.418;7.572;2023-06-14T06:10:33;5.32;;;3.70;;
45887;SDS011;31595;51.418;7.572;2023-06-14T06:12:59;6.65;;;3.58;;
45887;SDS011;31595;51.418;7.572;2023-06-14T06:15:28;5.15;;;3.55;;
45887;SDS011;31595;51.418;7.572;2023-06-14T06:17:54;4.90;;;3.33;;
45887;SDS011;31595;51.418;7.572;2023-06-14T06:20:22;6.28;;;3.80;;
45887;SDS011;31595;51.418;7.572;2023-06-14T06:22:53;5.68;;;3.47;;
45887;SDS011;31595;51.418;7.572;2023-06-14T06:25:20;4.38;;;3.33;;
45887;SDS011;31595;51.418;7.572;2023-06-14T06:27:47;7.30;;;3.28;;
45887;SDS011;31595;51.418;7.572;2023-06-14T06:30:14;4.22;;;2.95;;
45887;SDS011;31595;51.418;7.572;2023-06-14T06:32:42;6.95;;;2.80;;
45887;SDS011;31595;51.418;7.572;2023-06-14T06:35:09;4.47;;;3.00;;
45887;SDS011;31595;51.418;7.572;2023-06-14T06:37:38;4.80;;;2.80;;
45887;SDS011;31595;51.418;7.572;2023-06-14T06:40:05;3.70;;;2.60;;
45887;SDS011;31595;51.418;7.572;2023-06-14T06:42:32;5.30;;;2.92;;
45887;SDS011;31595;51.418;7.572;2023-06-14T06:44:59;9.88;;;3.28;;
45887;SDS011;31595;51.418;7.572;2023-06-14T06:47:26;4.75;;;2.70;;
45887;SDS011;31595;51.418;7.572;2023-06-14T06:49:55;6.07;;;2.60;;
45887;SDS011;31595;51.418;7.572;2023-06-14T06:52:22;4.32;;;2.65;;
45887;SDS011;31595;51.418;7.572;2023-06-14T06:54:48;4.90;;;2.60;;
45887;SDS011;31595;51.418;7.572;2023-06-14T06:57:20;5.38;;;3.05;;
45887;SDS011;31595;51.418;7.572;2023-06-14T06:59:48;4.13;;;2.58;;
45887;SDS011;31595;51.418;7.572;2023-06-14T07:02:15;5.03;;;2.50;;
45887;SDS011;31595;51.418;7.572;2023-06-14T07:04:41;7.28;;;2.30;;
45887;SDS011;31595;51.418;7.572;2023-06-14T07:07:10;6.53;;;2.30;;
45887;SDS011;31595;51.418;7.572;2023-06-14T07:09:36;2.70;;;2.05;;
45887;SDS011;31595;51.418;7.572;2023-06-14T07:12:03;4.88;;;2.10;;
45887;SDS011;31595;51.418;7.572;2023-06-14T07:14:31;3.00;;;2.10;;
45887;SDS011;31595;51.418;7.572;2023-06-14T07:16:58;4.38;;;2.30;;
45887;SDS011;31595;51.418;7.572;2023-06-14T07:19:24;3.67;;;2.25;;
45887;SDS011;31595;51.418;7.572;2023-06-14T07:21:51;3.08;;;2.13;;
45887;SDS011;31595;51.418;7.572;2023-06-14T07:24:19;2.50;;;2.10;;
45887;SDS011;31595;51.418;7.572;2023-06-14T07:26:47;3.47;;;2.03;;
45887;SDS011;31595;51.418;7.572;2023-06-14T07:29:14;3.45;;;2.10;;
45887;SDS011;31595;51.418;7.572;2023-06-14T07:31:42;4.22;;;2.33;;
45887;SDS011;31595;51.418;7.572;2023-06-14T07:34:09;4.25;;;1.95;;
45887;SDS011;31595;51.418;7.572;2023-06-14T07:36:36;3.70;;;1.88;;
45887;SDS011;31595;51.418;7.572;2023-06-14T07:39:03;5.07;;;2.25;;
45887;SDS011;31595;51.418;7.572;2023-06-14T07:41:33;3.45;;;1.92;;
45887;SDS011;31595;51.418;7.572;2023-06-14T07:44:00;4.78;;;1.95;;
45887;SDS011;31595;51.418;7.572;2023-06-14T07:46:26;4.60;;;2.30;;
45887;SDS011;31595;51.418;7.572;2023-06-14T07:48:53;6.18;;;1.92;;
45887;SDS011;31595;51.418;7.572;2023-06-14T07:51:20;2.42;;;1.95;;
45887;SDS011;31595;51.418;7.572;2023-06-14T07:53:48;3.08;;;2.17;;
45887;SDS011;31595;51.418;7.572;2023-06-14T07:56:15;4.93;;;1.95;;
45887;SDS011;31595;51.418;7.572;2023-06-14T07:58:43;3.70;;;2.20;;
45887;SDS011;31595;51.418;7.572;2023-06-14T08:01:10;3.75;;;2.00;;
45887;SDS011;31595;51.418;7.572;2023-06-14T08:03:37;2.80;;;2.00;;
45887;SDS011;31595;51.418;7.572;2023-06-14T08:06:06;4.20;;;1.83;;
45887;SDS011;31595;51.418;7.572;2023-06-14T08:08:33;5.05;;;2.25;;
45887;SDS011;31595;51.418;7.572;2023-06-14T08:11:00;4.00;;;1.75;;
45887;SDS011;31595;51.418;7.572;2023-06-14T08:13:26;2.75;;;1.98;;
45887;SDS011;31595;51.418;7.572;2023-06-14T08:15:55;4.18;;;1.85;;
45887;SDS011;31595;51.418;7.572;2023-06-14T08:20:49;3.55;;;1.70;;
45887;SDS011;31595;51.418;7.572;2023-06-14T08:23:17;3.67;;;1.67;;
45887;SDS011;31595;51.418;7.572;2023-06-14T08:28:12;7.75;;;2.15;;
45887;SDS011;31595;51.418;7.572;2023-06-14T08:30:40;4.15;;;2.20;;
45887;SDS011;31595;51.418;7.572;2023-06-14T08:33:09;4.10;;;1.90;;
45887;SDS011;31595;51.418;7.572;2023-06-14T08:35:36;3.50;;;1.55;;
45887;SDS011;31595;51.418;7.572;2023-06-14T08:38:04;4.40;;;1.95;;
45887;SDS011;31595;51.418;7.572;2023-06-14T08:40:31;2.00;;;1.70;;
45887;SDS011;31595;51.418;7.572;2023-06-14T08:43:03;4.43;;;1.73;;
45887;SDS011;31595;51.418;7.572;2023-06-14T08:45:30;3.08;;;1.60;;
45887;SDS011;31595;51.418;7.572;2023-06-14T08:47:57;2.30;;;1.60;;
45887;SDS011;31595;51.418;7.572;2023-06-14T08:50:26;3.08;;;1.52;;
45887;SDS011;31595;51.418;7.572;2023-06-14T08:52:56;4.10;;;1.40;;
45887;SDS011;31595;51.418;7.572;2023-06-14T08:55:26;1.92;;;1.50;;
45887;SDS011;31595;51.418;7.572;2023-06-14T08:57:53;2.95;;;1.48;;
45887;SDS011;31595;51.418;7.572;2023-06-14T09:00:20;3.15;;;1.40;;
45887;SDS011;31595;51.418;7.572;2023-06-14T09:02:49;2.42;;;1.52;;
45887;SDS011;31595;51.418;7.572;2023-06-14T09:05:22;3.33;;;1.50;;
45887;SDS011;31595;51.418;7.572;2023-06-14T09:07:50;1.90;;;1.40;;
45887;SDS011;31595;51.418;7.572;2023-06-14T09:10:19;2.22;;;1.50;;
45887;SDS011;31595;51.418;7.572;2023-06-14T09:12:47;3.95;;;1.33;;
45887;SDS011;31595;51.418;7.572;2023-06-14T09:15:14;2.15;;;1.30;;
45887;SDS011;31595;51.418;7.572;2023-06-14T09:17:41;4.07;;;1.55;;
45887;SDS011;31595;51.418;7.572;2023-06-14T09:20:08;1.67;;;1.23;;
45887;SDS011;31595;51.418;7.572;2023-06-14T09:25:04;2.35;;;1.27;;
45887;SDS011;31595;51.418;7.572;2023-06-14T09:27:31;2.85;;;1.58;;
45887;SDS011;31595;51.418;7.572;2023-06-14T09:29:58;2.67;;;1.50;;
45887;SDS011;31595;51.418;7.572;2023-06-14T09:32:25;3.07;;;1.30;;
45887;SDS011;31595;51.418;7.572;2023-06-14T09:34:52;2.38;;;1.40;;
45887;SDS011;31595;51.418;7.572;2023-06-14T09:37:28;2.83;;;1.23;;
45887;SDS011;31595;51.418;7.572;2023-06-14T09:39:56;2.10;;;1.10;;
45887;SDS011;31595;51.418;7.572;2023-06-14T09:42:24;2.95;;;0.95;;
45887;SDS011;31595;51.418;7.572;2023-06-14T09:44:51;2.78;;;1.30;;
45887;SDS011;31595;51.418;7.572;2023-06-14T09:47:19;1.60;;;1.00;;
45887;SDS011;31595;51.418;7.572;2023-06-14T09:49:46;4.15;;;1.38;;
45887;SDS011;31595;51.418;7.572;2023-06-14T09:52:13;2.08;;;1.25;;
45887;SDS011;31595;51.418;7.572;2023-06-14T09:54:41;1.23;;;1.10;;
45887;SDS011;31595;51.418;7.572;2023-06-14T09:57:08;1.83;;;1.30;;
45887;SDS011;31595;51.418;7.572;2023-06-14T09:59:37;3.03;;;1.23;;
45887;SDS011;31595;51.418;7.572;2023-06-14T10:02:10;3.45;;;1.33;;
45887;SDS011;31595;51.418;7.572;2023-06-14T10:04:38;3.00;;;1.25;;
45887;SDS011;31595;51.418;7.572;2023-06-14T10:07:06;1.50;;;1.05;;
45887;SDS011;31595;51.418;7.572;2023-06-14T10:09:33;2.85;;;1.10;;
45887;SDS011;31595;51.418;7.572;2023-06-14T10:14:27;1.83;;;1.15;;
45887;SDS011;31595;51.418;7.572;2023-06-14T10:16:56;1.80;;;1.00;;
45887;SDS011;31595;51.418;7.572;2023-06-14T10:19:25;1.33;;;0.93;;
45887;SDS011;31595;51.418;7.572;2023-06-14T10:22:01;1.50;;;1.20;;
45887;SDS011;31595;51.418;7.572;2023-06-14T10:24:29;1.13;;;1.02;;
45887;SDS011;31595;51.418;7.572;2023-06-14T10:26:57;2.85;;;1.23;;
45887;SDS011;31595;51.418;7.572;2023-06-14T10:29:24;2.70;;;1.10;;
45887;SDS011;31595;51.418;7.572;2023-06-14T10:31:56;4.22;;;1.23;;
45887;SDS011;31595;51.418;7.572;2023-06-14T10:34:25;1.65;;;1.10;;
45887;SDS011;31595;51.418;7.572;2023-06-14T10:37:02;1.88;;;1.10;;
45887;SDS011;31595;51.418;7.572;2023-06-14T10:39:29;2.55;;;1.30;;
45887;SDS011;31595;51.418;7.572;2023-06-14T10:41:57;4.55;;;1.23;;
45887;SDS011;31595;51.418;7.572;2023-06-14T10:44:33;3.15;;;1.30;;
45887;SDS011;31595;51.418;7.572;2023-06-14T10:47:00;1.50;;;1.20;;
45887;SDS011;31595;51.418;7.572;2023-06-14T10:49:38;2.10;;;1.40;;
45887;SDS011;31595;51.418;7.572;2023-06-14T10:52:13;1.90;;;1.40;;
45887;SDS011;31595;51.418;7.572;2023-06-14T10:55:04;1.90;;;1.30;;
45887;SDS011;31595;51.418;7.572;2023-06-14T10:57:31;1.70;;;1.45;;
45887;SDS011;31595;51.418;7.572;2023-06-14T10:59:59;3.10;;;1.45;;
45887;SDS011;31595;51.418;7.572;2023-06-14T11:05:09;2.00;;;1.58;;
45887;SDS011;31595;51.418;7.572;2023-06-14T11:07:43;4.22;;;1.50;;
45887;SDS011;31595;51.418;7.572;2023-06-14T11:10:15;2.45;;;1.45;;
45887;SDS011;31595;51.418;7.572;2023-06-14T11:12:47;3.05;;;1.60;;
45887;SDS011;31595;51.418;7.572;2023-06-14T11:15:14;2.22;;;1.40;;
45887;SDS011;31595;51.418;7.572;2023-06-14T11:17:49;5.75;;;1.90;;
45887;SDS011;31595;51.418;7.572;2023-06-14T11:20:18;3.03;;;1.40;;
45887;SDS011;31595;51.418;7.572;2023-06-14T11:22:48;3.33;;;1.38;;
45887;SDS011;31595;51.418;7.572;2023-06-14T11:25:18;2.60;;;1.70;;
45887;SDS011;31595;51.418;7.572;2023-06-14T11:27:44;2.85;;;1.35;;
45887;SDS011;31595;51.418;7.572;2023-06-14T11:30:12;3.78;;;1.48;;
45887;SDS011;31595;51.418;7.572;2023-06-14T11:32:39;2.63;;;1.55;;
45887;SDS011;31595;51.418;7.572;2023-06-14T11:35:06;3.30;;;1.50;;
45887;SDS011;31595;51.418;7.572;2023-06-14T11:37:35;2.38;;;1.48;;
45887;SDS011;31595;51.418;7.572;2023-06-14T11:40:03;3.88;;;1.67;;
45887;SDS011;31595;51.418;7.572;2023-06-14T11:42:33;1.98;;;1.60;;
45887;SDS011;31595;51.418;7.572;2023-06-14T11:47:31;2.28;;;1.63;;
45887;SDS011;31595;51.418;7.572;2023-06-14T11:49:58;2.92;;;1.50;;
45887;SDS011;31595;51.418;7.572;2023-06-14T11:54:53;3.78;;;1.88;;
45887;SDS011;31595;51.418;7.572;2023-06-14T11:57:20;3.38;;;1.75;;
45887;SDS011;31595;51.418;7.572;2023-06-14T11:59:46;2.95;;;1.50;;
45887;SDS011;31595;51.418;7.572;2023-06-14T12:02:14;2.38;;;1.65;;
45887;SDS011;31595;51.418;7.572;2023-06-14T12:04:41;4.90;;;1.88;;
45887;SDS011;31595;51.418;7.572;2023-06-14T12:07:08;2.58;;;2.05;;
45887;SDS011;31595;51.418;7.572;2023-06-14T12:09:40;2.78;;;1.60;;
45887;SDS011;31595;51.418;7.572;2023-06-14T12:12:11;4.18;;;1.70;;
45887;SDS011;31595;51.418;7.572;2023-06-14T12:14:41;3.20;;;1.65;;
45887;SDS011;31595;51.418;7.572;2023-06-14T12:17:07;1.90;;;1.60;;
45887;SDS011;31595;51.418;7.572;2023-06-14T12:19:41;4.05;;;1.70;;
45887;SDS011;31595;51.418;7.572;2023-06-14T12:22:09;2.65;;;1.55;;
45887;SDS011;31595;51.418;7.572;2023-06-14T12:24:36;3.22;;;1.52;;
45887;SDS011;31595;51.418;7.572;2023-06-14T12:27:03;4.13;;;1.52;;
45887;SDS011;31595;51.418;7.572;2023-06-14T12:29:31;3.30;;;1.70;;
45887;SDS011;31595;51.418;7.572;2023-06-14T12:31:59;3.75;;;1.45;;
45887;SDS011;31595;51.418;7.572;2023-06-14T12:34:25;2.20;;;1.63;;
45887;SDS011;31595;51.418;7.572;2023-06-14T12:36:53;2.47;;;1.70;;
45887;SDS011;31595;51.418;7.572;2023-06-14T12:39:20;2.00;;;1.50;;
45887;SDS011;31595;51.418;7.572;2023-06-14T12:41:47;3.00;;;1.50;;
45887;SDS011;31595;51.418;7.572;2023-06-14T12:44:14;2.90;;;1.80;;
45887;SDS011;31595;51.418;7.572;2023-06-14T12:46:42;3.00;;;1.58;;
45887;SDS011;31595;51.418;7.572;2023-06-14T12:49:10;3.25;;;1.60;;
45887;SDS011;31595;51.418;7.572;2023-06-14T12:51:37;4.13;;;1.73;;
45887;SDS011;31595;51.418;7.572;2023-06-14T12:54:04;3.10;;;1.80;;
45887;SDS011;31595;51.418;7.572;2023-06-14T12:56:31;2.72;;;1.80;;
45887;SDS011;31595;51.418;7.572;2023-06-14T12:58:58;2.55;;;1.45;;
45887;SDS011;31595;51.418;7.572;2023-06-14T13:01:27;3.55;;;1.85;;
45887;SDS011;31595;51.418;7.572;2023-06-14T13:04:06;4.55;;;1.70;;
45887;SDS011;31595;51.418;7.572;2023-06-14T13:06:33;2.80;;;1.90;;
45887;SDS011;31595;51.418;7.572;2023-06-14T13:08:59;4.57;;;1.70;;
45887;SDS011;31595;51.418;7.572;2023-06-14T13:11:27;2.07;;;1.47;;
45887;SDS011;31595;51.418;7.572;2023-06-14T13:13:53;3.10;;;1.60;;
45887;SDS011;31595;51.418;7.572;2023-06-14T13:16:20;4.63;;;1.90;;
45887;SDS011;31595;51.418;7.572;2023-06-14T13:18:47;3.40;;;1.70;;
45887;SDS011;31595;51.418;7.572;2023-06-14T13:21:15;6.30;;;1.60;;
45887;SDS011;31595;51.418;7.572;2023-06-14T13:26:08;3.00;;;1.70;;
45887;SDS011;31595;51.418;7.572;2023-06-14T13:28:35;3.20;;;1.70;;
45887;SDS011;31595;51.418;7.572;2023-06-14T13:31:02;5.28;;;1.80;;
45887;SDS011;31595;51.418;7.572;2023-06-14T13:33:30;3.47;;;1.85;;
45887;SDS011;31595;51.418;7.572;2023-06-14T13:35:58;3.08;;;1.63;;
45887;SDS011;31595;51.418;7.572;2023-06-14T13:38:27;2.30;;;1.80;;
45887;SDS011;31595;51.418;7.572;2023-06-14T13:40:54;3.58;;;1.75;;
45887;SDS011;31595;51.418;7.572;2023-06-14T13:43:21;3.17;;;1.73;;
45887;SDS011;31595;51.418;7.572;2023-06-14T14:13:19;4.72;;;2.03;;
45887;SDS011;31595;51.418;7.572;2023-06-14T14:15:46;4.43;;;1.88;;
45887;SDS011;31595;51.418;7.572;2023-06-14T14:18:14;3.00;;;1.70;;
45887;SDS011;31595;51.418;7.572;2023-06-14T14:20:46;1.90;;;1.42;;
45887;SDS011;31595;51.418;7.572;2023-06-14T14:23:12;4.22;;;1.80;;
45887;SDS011;31595;51.418;7.572;2023-06-14T14:25:40;2.55;;;1.83;;
45887;SDS011;31595;51.418;7.572;2023-06-14T14:28:07;3.53;;;2.17;;
45887;SDS011;31595;51.418;7.572;2023-06-14T14:30:35;2.55;;;1.83;;
45887;SDS011;31595;51.418;7.572;2023-06-14T14:33:05;2.03;;;1.60;;
45887;SDS011;31595;51.418;7.572;2023-06-14T14:35:31;4.82;;;1.98;;
45887;SDS011;31595;51.418;7.572;2023-06-14T14:37:58;2.60;;;1.77;;
45887;SDS011;31595;51.418;7.572;2023-06-14T14:40:25;2.42;;;1.77;;
45887;SDS011;31595;51.418;7.572;2023-06-14T14:42:52;3.05;;;1.88;;
45887;SDS011;31595;51.418;7.572;2023-06-14T14:45:19;3.25;;;2.95;;
45887;SDS011;31595;51.418;7.572;2023-06-14T14:47:48;5.55;;;2.10;;
45887;SDS011;31595;51.418;7.572;2023-06-14T14:50:15;4.70;;;2.47;;
45887;SDS011;31595;51.418;7.572;2023-06-14T14:52:42;2.78;;;2.10;;
45887;SDS011;31595;51.418;7.572;2023-06-14T14:55:09;3.88;;;1.98;;
45887;SDS011;31595;51.418;7.572;2023-06-14T14:57:35;2.63;;;1.80;;
45887;SDS011;31595;51.418;7.572;2023-06-14T15:00:03;3.63;;;2.00;;
45887;SDS011;31595;51.418;7.572;2023-06-14T15:02:31;3.92;;;2.08;;
45887;SDS011;31595;51.418;7.572;2023-06-14T15:04:59;3.15;;;1.98;;
45887;SDS011;31595;51.418;7.572;2023-06-14T15:07:26;4.88;;;1.95;;
45887;SDS011;31595;51.418;7.572;2023-06-14T15:09:53;3.45;;;2.05;;
45887;SDS011;31595;51.418;7.572;2023-06-14T15:12:20;3.20;;;1.88;;
45887;SDS011;31595;51.418;7.572;2023-06-14T15:14:49;3.60;;;1.90;;
45887;SDS011;31595;51.418;7.572;2023-06-14T15:17:16;3.00;;;2.07;;
45887;SDS011;31595;51.418;7.572;2023-06-14T15:19:43;3.40;;;1.90;;
45887;SDS011;31595;51.418;7.572;2023-06-14T15:22:11;3.13;;;2.20;;
45887;SDS011;31595;51.418;7.572;2023-06-14T15:24:38;3.55;;;2.22;;
45887;SDS011;31595;51.418;7.572;2023-06-14T15:27:05;2.42;;;1.88;;
45887;SDS011;31595;51.418;7.572;2023-06-14T15:29:32;3.25;;;2.10;;
45887;SDS011;31595;51.418;7.572;2023-06-14T15:32:00;3.58;;;2.25;;
45887;SDS011;31595;51.418;7.572;2023-06-14T15:34:27;4.85;;;2.28;;
45887;SDS011;31595;51.418;7.572;2023-06-14T15:36:54;2.53;;;1.67;;
45887;SDS011;31595;51.418;7.572;2023-06-14T15:39:22;2.40;;;1.90;;
45887;SDS011;31595;51.418;7.572;2023-06-14T15:44:17;3.20;;;2.22;;